Time;durP1;ratioP1;P1;durP2;ratioP2;P2;SDS_P1;SDS_P2;PMS_P1;PMS_P2;Temp;Humidity;BMP_temperature;BMP_pressure;BME280_temperature;BME280_humidity;BME280_pressure;Samples;Min_cycle;Max_cycle;Signal;HPM_P1;HPM_P2
2023/09/07 00:01:06;;;;;;;15.80;13.50;;;;;;;16.01;100.00;100005.29;109649;1250;62441;-69
2023/09/07 00:03:32;;;;;;;17.60;13.20;;;;;;;16.03;100.00;100002.10;109527;1251;59795;-69
2023/09/07 00:05:59;;;;;;;15.90;13.10;;;;;;;16.10;100.00;100001.33;109670;1250;75816;-68
2023/09/07 00:08:26;;;;;;;17.70;14.10;;;;;;;16.12;100.00;100000.56;109727;1250;67806;-69
2023/09/07 00:10:53;;;;;;;18.00;14.50;;;;;;;16.12;100.00;100001.92;109643;1250;71679;-68
2023/09/07 00:13:19;;;;;;;18.10;14.90;;;;;;;16.16;100.00;100003.28;109623;1250;60722;-69
2023/09/07 00:15:46;;;;;;;18.70;14.30;;;;;;;16.23;100.00;100006.64;109698;1250;59649;-69
2023/09/07 00:18:12;;;;;;;19.80;14.40;;;;;;;16.32;100.00;100006.39;109635;1250;75165;-69
2023/09/07 00:20:40;;;;;;;18.10;14.50;;;;;;;16.39;100.00;100006.56;109691;1249;59792;-69
2023/09/07 00:23:07;;;;;;;20.30;15.90;;;;;;;16.46;100.00;100005.64;109616;1250;72715;-69
2023/09/07 00:25:33;;;;;;;26.40;17.90;;;;;;;16.53;100.00;100004.95;109636;1250;60098;-69
2023/09/07 00:28:00;;;;;;;23.20;18.70;;;;;;;16.59;100.00;100001.42;109669;1251;59631;-68
2023/09/07 00:30:27;;;;;;;29.00;20.50;;;;;;;16.66;100.00;99999.89;109636;1250;75250;-69
2023/09/07 00:32:53;;;;;;;23.30;18.50;;;;;;;16.72;100.00;100003.56;109664;1250;67856;-69
2023/09/07 00:35:20;;;;;;;28.80;19.60;;;;;;;16.78;100.00;100003.15;109610;1250;72636;-69
2023/09/07 00:37:47;;;;;;;26.30;19.00;;;;;;;16.83;100.00;99999.41;109513;1250;60630;-70
2023/09/07 00:40:14;;;;;;;26.50;18.80;;;;;;;16.88;100.00;99997.96;109618;1250;59864;-70
2023/09/07 00:42:41;;;;;;;23.10;18.40;;;;;;;16.92;100.00;99995.75;109523;1250;75264;-70
2023/09/07 00:45:08;;;;;;;24.10;19.70;;;;;;;16.97;100.00;99994.95;109661;1250;66648;-69
2023/09/07 00:47:38;;;;;;;28.50;19.50;;;;;;;17.01;100.00;99995.21;109538;1250;71525;-69
2023/09/07 00:50:05;;;;;;;22.40;19.40;;;;;;;17.05;100.00;99995.58;109670;1250;60193;-70
2023/09/07 00:52:34;;;;;;;24.10;19.20;;;;;;;17.09;100.00;99998.61;109635;1250;60499;-69
2023/09/07 00:55:04;;;;;;;22.80;19.80;;;;;;;17.11;100.00;100000.31;109673;1250;75739;-70
2023/09/07 00:57:31;;;;;;;24.20;19.20;;;;;;;17.13;100.00;99999.00;109470;1250;69192;-69
2023/09/07 00:59:57;;;;;;;24.10;18.60;;;;;;;17.16;100.00;99999.18;109577;1250;72813;-70
2023/09/07 01:02:24;;;;;;;22.20;17.90;;;;;;;17.21;100.00;99998.29;109496;1250;62118;-70
2023/09/07 01:04:52;;;;;;;21.80;18.50;;;;;;;17.25;100.00;99999.55;109583;1250;59826;-70
2023/09/07 01:07:20;;;;;;;22.30;19.10;;;;;;;17.28;100.00;99998.81;109326;1251;75301;-70
2023/09/07 01:09:49;;;;;;;22.30;19.50;;;;;;;17.28;100.00;99998.27;109454;1250;67985;-70
2023/09/07 01:12:16;;;;;;;22.50;17.00;;;;;;;17.30;100.00;100000.39;109535;1250;73098;-69
2023/09/07 01:14:42;;;;;;;17.30;15.30;;;;;;;17.32;100.00;100000.36;109526;1250;61181;-70
2023/09/07 01:17:10;;;;;;;19.60;17.60;;;;;;;17.31;100.00;99997.02;109529;1250;59712;-70
2023/09/07 01:19:37;;;;;;;21.20;18.40;;;;;;;17.29;100.00;99998.54;109651;1250;75476;-70
2023/09/07 01:22:03;;;;;;;21.90;18.20;;;;;;;17.26;100.00;99999.22;109556;1250;66713;-70
2023/09/07 01:24:30;;;;;;;21.20;18.20;;;;;;;17.26;100.00;100000.21;109621;1250;73349;-69
2023/09/07 01:26:57;;;;;;;23.50;19.00;;;;;;;17.25;100.00;100000.01;109521;1250;60357;-70
2023/09/07 01:29:24;;;;;;;24.10;20.30;;;;;;;17.24;100.00;99994.70;109580;1251;60190;-68
2023/09/07 01:31:51;;;;;;;20.30;17.00;;;;;;;17.26;100.00;99994.95;109366;1250;74081;-68
2023/09/07 01:34:17;;;;;;;22.40;17.50;;;;;;;17.23;100.00;100000.20;109660;1249;67716;-68
2023/09/07 01:36:44;;;;;;;20.40;17.40;;;;;;;17.15;100.00;99996.45;109639;1250;71404;-69
2023/09/07 01:39:10;;;;;;;20.20;17.10;;;;;;;17.08;100.00;99993.98;109544;1251;59734;-69
2023/09/07 01:41:37;;;;;;;18.30;15.90;;;;;;;17.04;100.00;99997.77;109644;1250;59806;-69
2023/09/07 01:44:04;;;;;;;21.50;15.50;;;;;;;17.00;100.00;99998.45;109656;1250;74119;-69
2023/09/07 01:46:31;;;;;;;18.40;15.70;;;;;;;16.90;100.00;99998.92;109550;1251;66662;-69
2023/09/07 01:48:58;;;;;;;22.00;15.40;;;;;;;16.79;100.00;99998.65;109568;1250;72779;-69
2023/09/07 01:51:27;;;;;;;18.80;15.60;;;;;;;16.74;100.00;99999.24;109588;1250;61878;-68
2023/09/07 01:53:54;;;;;;;20.10;15.10;;;;;;;16.68;100.00;99997.09;109677;1250;59688;-68
2023/09/07 01:56:21;;;;;;;16.90;15.10;;;;;;;16.64;100.00;99997.11;109700;1249;74285;-69
2023/09/07 01:58:48;;;;;;;17.30;15.40;;;;;;;16.56;100.00;99994.98;109493;1250;67348;-68
2023/09/07 02:01:24;;;;;;;16.30;14.60;;;;;;;16.50;100.00;100002.48;109521;1250;72783;-69
2023/09/07 02:03:51;;;;;;;16.10;14.50;;;;;;;16.43;100.00;100005.77;109604;1250;62001;-69
2023/09/07 02:06:18;;;;;;;18.70;15.20;;;;;;;16.40;100.00;100005.42;109630;1250;59859;-68
2023/09/07 02:08:45;;;;;;;20.00;15.70;;;;;;;16.34;100.00;100005.16;109649;1250;75493;-68
2023/09/07 02:11:12;;;;;;;19.10;16.10;;;;;;;16.27;100.00;100007.25;109668;1250;66636;-68
2023/09/07 02:13:42;;;;;;;20.10;18.00;;;;;;;16.19;100.00;100009.66;109537;1250;71781;-67
2023/09/07 02:16:09;;;;;;;25.10;20.50;;;;;;;16.11;100.00;100014.14;109592;1250;61245;-67
2023/09/07 02:18:37;;;;;;;23.30;19.10;;;;;;;16.02;100.00;100014.46;109452;1252;59630;-68
2023/09/07 02:21:04;;;;;;;22.60;18.40;;;;;;;15.96;100.00;100010.24;109651;1250;75431;-68
2023/09/07 02:23:33;;;;;;;21.60;17.30;;;;;;;15.94;100.00;100009.90;109642;1250;66430;-68
2023/09/07 02:26:00;;;;;;;24.90;18.70;;;;;;;15.97;100.00;100008.80;109654;1250;71803;-69
2023/09/07 02:28:27;;;;;;;24.20;19.20;;;;;;;16.01;100.00;100007.36;109572;1251;60822;-70
2023/09/07 02:30:54;;;;;;;23.70;19.60;;;;;;;16.09;100.00;100003.83;109547;1250;60267;-68
2023/09/07 02:33:22;;;;;;;28.30;21.00;;;;;;;16.15;100.00;100005.42;109651;1250;74785;-68
2023/09/07 02:35:49;;;;;;;21.40;18.20;;;;;;;16.17;100.00;100001.68;109632;1250;67701;-68
2023/09/07 02:38:16;;;;;;;21.20;18.30;;;;;;;16.19;100.00;100002.77;109669;1250;71398;-69
2023/09/07 02:40:43;;;;;;;21.10;17.80;;;;;;;16.17;100.00;100006.91;109556;1250;61018;-69
2023/09/07 02:43:10;;;;;;;20.40;18.20;;;;;;;16.14;100.00;100012.52;109531;1250;59748;-70
2023/09/07 02:45:37;;;;;;;20.20;17.60;;;;;;;16.09;100.00;100012.14;109616;1250;75423;-70
2023/09/07 02:48:05;;;;;;;20.30;16.90;;;;;;;16.05;100.00;100004.83;109596;1250;68166;-70
2023/09/07 02:50:33;;;;;;;21.40;17.70;;;;;;;16.02;100.00;100003.23;109590;1250;72654;-69
2023/09/07 02:53:00;;;;;;;20.10;17.80;;;;;;;15.99;100.00;100003.71;109570;1250;61697;-70
2023/09/07 02:55:28;;;;;;;20.40;16.90;;;;;;;15.97;100.00;100007.24;109568;1250;60166;-69
2023/09/07 02:57:56;;;;;;;24.90;18.10;;;;;;;15.94;100.00;100012.92;109534;1250;75368;-69
2023/09/07 03:00:23;;;;;;;20.00;17.90;;;;;;;15.88;100.00;100011.23;109698;1250;67758;-70
2023/09/07 03:02:50;;;;;;;22.90;18.20;;;;;;;15.75;100.00;100015.15;109497;1250;71322;-70
2023/09/07 03:05:17;;;;;;;22.40;17.40;;;;;;;15.63;100.00;100024.39;109727;1250;61512;-70
2023/09/07 03:07:44;;;;;;;18.30;16.30;;;;;;;15.52;100.00;100033.27;109584;1250;60619;-70
2023/09/07 03:10:11;;;;;;;19.70;16.30;;;;;;;15.42;100.00;100037.89;109556;1250;75437;-69
2023/09/07 03:12:40;;;;;;;18.40;16.40;;;;;;;15.36;100.00;100035.29;109533;1250;68749;-69
2023/09/07 03:15:07;;;;;;;18.90;14.60;;;;;;;15.34;100.00;100029.98;109626;1250;70981;-69
2023/09/07 03:17:34;;;;;;;19.70;15.30;;;;;;;15.34;100.00;100032.46;109515;1250;60676;-69
2023/09/07 03:20:13;;;;;;;17.70;15.60;;;;;;;15.35;100.00;100034.59;109552;1250;60219;-69
2023/09/07 03:22:42;;;;;;;22.90;17.40;;;;;;;15.36;100.00;100031.42;109646;1250;75506;-69
2023/09/07 03:25:12;;;;;;;21.80;18.00;;;;;;;15.39;100.00;100030.58;109548;1250;67577;-70
2023/09/07 03:27:39;;;;;;;22.80;18.60;;;;;;;15.36;100.00;100032.41;109575;1250;71397;-70
2023/09/07 03:30:07;;;;;;;28.10;18.00;;;;;;;15.29;100.00;100038.30;109547;1250;60471;-71
2023/09/07 03:32:34;;;;;;;19.60;17.60;;;;;;;15.20;100.00;100037.80;109642;1250;60386;-70
2023/09/07 03:35:03;;;;;;;21.30;17.30;;;;;;;15.13;100.00;100040.07;109655;1250;75391;-70
2023/09/07 03:37:30;;;;;;;21.00;16.80;;;;;;;15.08;100.00;100038.72;109638;1250;66940;-69
2023/09/07 03:39:57;;;;;;;19.30;16.00;;;;;;;15.03;100.00;100043.64;109652;1250;59801;-70
2023/09/07 03:42:23;;;;;;;20.60;16.40;;;;;;;14.98;100.00;100043.48;109558;1250;61809;-70
2023/09/07 03:44:50;;;;;;;23.00;17.20;;;;;;;14.93;100.00;100047.13;109629;1250;59968;-70
2023/09/07 03:47:18;;;;;;;19.00;15.50;;;;;;;14.91;100.00;100053.86;109534;1249;75304;-72
2023/09/07 03:49:44;;;;;;;21.70;17.70;;;;;;;14.89;100.00;100053.02;109530;1252;66707;-67
2023/09/07 03:52:11;;;;;;;20.90;16.40;;;;;;;14.87;100.00;100059.19;109456;1250;72444;-70
2023/09/07 03:54:38;;;;;;;20.10;17.30;;;;;;;14.84;100.00;100063.60;109472;1253;60918;-72
2023/09/07 03:57:05;;;;;;;18.20;16.00;;;;;;;14.82;100.00;100068.65;109551;1250;59789;-70
2023/09/07 03:59:32;;;;;;;19.70;16.30;;;;;;;14.80;100.00;100070.80;109698;1250;74044;-72
2023/09/07 04:01:58;;;;;;;26.40;17.00;;;;;;;14.82;100.00;100073.14;109616;1251;67687;-67
2023/09/07 04:04:25;;;;;;;19.40;16.20;;;;;;;14.84;100.00;100072.88;109652;1250;71339;-73
2023/09/07 04:06:52;;;;;;;21.40;16.60;;;;;;;14.90;100.00;100075.27;109679;1250;60595;-72
2023/09/07 04:09:18;;;;;;;18.60;16.50;;;;;;;14.96;100.00;100076.64;109541;1250;59850;-73
2023/09/07 04:11:45;;;;;;;25.70;17.60;;;;;;;15.06;100.00;100077.90;109587;1250;74462;-71
2023/09/07 04:14:11;;;;;;;18.50;16.00;;;;;;;15.18;100.00;100076.38;109510;1250;67669;-67
2023/09/07 04:16:38;;;;;;;21.00;15.90;;;;;;;15.34;100.00;100076.83;109525;1250;72663;-67
2023/09/07 04:19:07;;;;;;;22.70;17.10;;;;;;;15.57;100.00;100076.37;109484;1250;61933;-71
2023/09/07 04:21:36;;;;;;;21.30;17.00;;;;;;;15.80;100.00;100074.64;109461;1250;59885;-70
2023/09/07 04:24:03;;;;;;;22.50;16.10;;;;;;;16.09;100.00;100073.70;109596;1251;73940;-77
2023/09/07 04:26:30;;;;;;;22.10;16.20;;;;;;;16.39;100.00;100074.60;109565;1250;67829;-72
2023/09/07 04:29:12;;;;;;;18.10;15.20;;;;;;;16.72;100.00;100068.08;109530;1250;72472;-72
2023/09/07 04:31:40;;;;;;;19.50;17.10;;;;;;;17.02;100.00;100065.02;109563;1251;60221;-70
2023/09/07 04:34:22;;;;;;;18.20;16.30;;;;;;;17.36;100.00;100059.46;109649;1250;60971;-70
2023/09/07 04:36:49;;;;;;;23.10;15.70;;;;;;;17.67;100.00;100056.05;109551;1250;74858;-71
2023/09/07 04:39:16;;;;;;;21.60;15.80;;;;;;;17.99;100.00;100058.83;109616;1250;68177;-72
2023/09/07 04:41:43;;;;;;;24.50;16.10;;;;;;;18.32;100.00;100061.16;109591;1254;71598;-70
2023/09/07 04:44:10;;;;;;;20.20;15.60;;;;;;;18.67;100.00;100053.77;109467;1250;62409;-72
2023/09/07 04:46:37;;;;;;;27.20;16.50;;;;;;;18.99;100.00;100053.36;109564;1250;59836;-70
2023/09/07 04:49:06;;;;;;;18.80;13.80;;;;;;;19.30;100.00;100050.53;109685;1250;75278;-72
2023/09/07 04:51:32;;;;;;;28.30;14.60;;;;;;;19.60;100.00;100050.89;109686;1250;67930;-70
2023/09/07 04:53:59;;;;;;;18.80;12.60;;;;;;;19.81;100.00;100052.65;109504;1251;71963;-71
2023/09/07 04:56:27;;;;;;;20.60;11.80;;;;;;;19.88;100.00;100049.51;109599;1249;60359;-68
2023/09/07 04:58:54;;;;;;;15.10;11.10;;;;;;;19.87;100.00;100048.84;109634;1250;59797;-69
2023/09/07 05:01:21;;;;;;;18.20;12.20;;;;;;;19.78;100.00;100055.29;109598;1250;74591;-71
2023/09/07 05:03:50;;;;;;;23.20;12.30;;;;;;;19.67;100.00;100056.27;109580;1251;66859;-71
2023/09/07 05:06:17;;;;;;;14.30;11.20;;;;;;;19.58;100.00;100059.33;109453;1250;71391;-72
2023/09/07 05:08:44;;;;;;;16.50;11.60;;;;;;;19.55;100.00;100061.34;109419;1250;61871;-71
2023/09/07 05:11:11;;;;;;;15.50;11.30;;;;;;;19.69;100.00;100060.60;109618;1250;60301;-72
2023/09/07 05:13:38;;;;;;;16.30;11.90;;;;;;;19.95;100.00;100061.73;109597;1250;74260;-71
2023/09/07 05:16:05;;;;;;;20.60;11.70;;;;;;;20.13;100.00;100066.55;109441;1250;204940;-71
2023/09/07 05:18:34;;;;;;;12.10;10.50;;;;;;;20.43;100.00;100070.44;109496;1250;71768;-71
2023/09/07 05:21:02;;;;;;;11.50;10.40;;;;;;;20.79;100.00;100069.84;109512;1250;59752;-71
2023/09/07 05:23:29;;;;;;;15.10;9.90;;;;;;;21.08;100.00;100064.17;109493;1250;60160;-71
2023/09/07 05:25:56;;;;;;;13.40;9.40;;;;;;;21.15;100.00;100065.42;109420;1251;74409;-71
2023/09/07 05:28:25;;;;;;;15.40;9.40;;;;;;;21.16;100.00;100062.05;109378;1251;66631;-71
2023/09/07 05:30:53;;;;;;;10.60;9.60;;;;;;;21.28;100.00;100061.58;109365;1250;71415;-71
2023/09/07 05:33:21;;;;;;;9.60;8.50;;;;;;;21.42;100.00;100062.84;109406;1250;59790;-72
2023/09/07 05:35:48;;;;;;;11.20;8.20;;;;;;;21.50;100.00;100062.19;109425;1250;60311;-70
2023/09/07 05:38:14;;;;;;;10.40;9.40;;;;;;;21.59;100.00;100059.68;109512;1250;74213;-70
2023/09/07 05:40:43;;;;;;;9.60;8.40;;;;;;;21.72;100.00;100065.08;109432;1250;66732;-69
2023/09/07 05:43:13;;;;;;;9.60;8.70;;;;;;;21.90;100.00;100066.20;109521;1250;72133;-70
2023/09/07 05:45:40;;;;;;;9.50;8.50;;;;;;;22.19;100.00;100069.92;109488;1250;59803;-70
2023/09/07 05:48:08;;;;;;;8.30;7.50;;;;;;;22.42;100.00;100071.59;109474;1250;60282;-70
2023/09/07 05:50:37;;;;;;;9.30;7.80;;;;;;;22.65;100.00;100069.11;109604;1250;75430;-71
2023/09/07 05:53:04;;;;;;;8.80;7.80;;;;;;;22.81;100.00;100070.48;109586;1250;67913;-70
2023/09/07 05:55:32;;;;;;;9.10;7.50;;;;;;;22.91;100.00;100076.40;109466;1253;71177;-70
2023/09/07 05:57:59;;;;;;;9.60;7.40;;;;;;;22.89;100.00;100075.55;109413;1250;59764;-70
2023/09/07 06:00:28;;;;;;;7.70;6.90;;;;;;;22.85;100.00;100080.56;109532;1250;60214;-70
2023/09/07 06:02:56;;;;;;;7.50;6.80;;;;;;;22.96;100.00;100080.55;109656;1250;75477;-70
2023/09/07 06:05:23;;;;;;;8.00;7.30;;;;;;;23.16;100.00;100079.80;109732;1250;67089;-70
2023/09/07 06:07:50;;;;;;;7.50;6.80;;;;;;;23.34;100.00;100076.80;109553;1250;72560;-70
2023/09/07 06:10:17;;;;;;;6.80;6.20;;;;;;;23.36;100.00;100085.09;109591;1250;59810;-70
2023/09/07 06:12:45;;;;;;;6.50;5.20;;;;;;;23.24;100.00;100086.34;109447;1250;59833;-71
2023/09/07 06:15:12;;;;;;;7.50;6.10;;;;;;;23.19;100.00;100090.07;109566;1250;75305;-71
2023/09/07 06:17:39;;;;;;;6.80;5.50;;;;;;;23.15;100.00;100087.23;109553;1250;68272;-70
2023/09/07 06:20:06;;;;;;;5.70;5.20;;;;;;;23.07;100.00;100090.24;109520;1250;72731;-70
2023/09/07 06:22:33;;;;;;;9.50;6.30;;;;;;;23.02;100.00;100095.88;109556;1250;59767;-70
2023/09/07 06:25:00;;;;;;;7.10;5.90;;;;;;;22.99;100.00;100094.95;109614;1250;60256;-70
2023/09/07 06:27:27;;;;;;;7.40;5.80;;;;;;;23.08;100.00;100095.58;109690;1250;74217;-71
2023/09/07 06:29:55;;;;;;;7.00;6.10;;;;;;;23.26;100.00;100098.88;109572;1250;67773;-70
2023/09/07 06:32:24;;;;;;;5.80;5.30;;;;;;;23.42;100.00;100095.00;109564;1250;72568;-71
2023/09/07 06:34:52;;;;;;;7.30;6.20;;;;;;;23.42;100.00;100091.55;109571;1251;60416;-70
2023/09/07 06:37:18;;;;;;;8.40;6.30;;;;;;;23.34;100.00;100100.42;109730;1250;60008;-70
2023/09/07 06:39:45;;;;;;;6.80;6.10;;;;;;;23.35;100.00;100098.54;109607;1251;75529;-70
2023/09/07 06:42:12;;;;;;;6.80;6.10;;;;;;;23.57;100.00;100096.91;109632;1250;67800;-69
2023/09/07 06:44:45;;;;;;;6.70;5.60;;;;;;;23.89;100.00;100098.60;109597;1250;72546;-70
2023/09/07 06:47:12;;;;;;;6.40;5.60;;;;;;;24.24;100.00;100095.44;109526;1251;59715;-70
2023/09/07 06:49:39;;;;;;;7.20;6.50;;;;;;;24.52;100.00;100096.20;109547;1250;59820;-70
2023/09/07 06:52:06;;;;;;;7.80;6.30;;;;;;;24.73;100.00;100098.58;109704;1250;75481;-70
2023/09/07 06:54:35;;;;;;;7.30;6.50;;;;;;;24.89;100.00;100104.35;109697;1250;69326;-71
2023/09/07 06:57:02;;;;;;;6.80;6.20;;;;;;;24.97;100.00;100098.61;109563;1250;72587;-71
2023/09/07 06:59:29;;;;;;;7.40;6.70;;;;;;;25.13;100.00;100098.02;109580;1250;60126;-71
2023/09/07 07:01:59;;;;;;;7.50;6.90;;;;;;;25.46;100.00;100097.74;109577;1250;59891;-70
2023/09/07 07:04:26;;;;;;;6.20;5.70;;;;;;;25.90;100.00;100102.27;109723;1250;75601;-70
2023/09/07 07:06:54;;;;;;;8.00;5.80;;;;;;;26.23;100.00;100103.82;109554;1250;67856;-70
2023/09/07 07:09:21;;;;;;;6.80;6.10;;;;;;;26.53;100.00;100098.98;109669;1250;72529;-69
2023/09/07 07:11:49;;;;;;;6.40;5.70;;;;;;;26.94;99.95;100101.38;109650;1250;59747;-70
2023/09/07 07:14:15;;;;;;;6.30;5.20;;;;;;;27.25;99.94;100100.20;109714;1250;59827;-71
2023/09/07 07:16:43;;;;;;;7.50;5.90;;;;;;;27.71;97.72;100100.62;109515;1250;75456;-70
2023/09/07 07:19:10;;;;;;;5.60;5.10;;;;;;;28.17;95.24;100099.54;109691;1250;66107;-71
2023/09/07 07:21:37;;;;;;;6.00;5.50;;;;;;;28.49;89.57;100101.35;109556;1250;72694;-70
2023/09/07 07:24:07;;;;;;;6.50;5.70;;;;;;;28.26;86.72;100099.08;109548;1251;59825;-70
2023/09/07 07:26:34;;;;;;;7.50;5.70;;;;;;;27.85;88.78;100103.37;109602;1250;60666;-70
2023/09/07 07:29:01;;;;;;;6.00;4.90;;;;;;;27.64;89.82;100110.55;109751;1250;76232;-71
2023/09/07 07:31:29;;;;;;;8.80;5.60;;;;;;;27.69;92.20;100106.75;109565;1251;66485;-71
2023/09/07 07:33:56;;;;;;;5.20;4.70;;;;;;;28.05;91.75;100104.64;109667;1250;72763;-70
2023/09/07 07:36:23;;;;;;;8.00;5.80;;;;;;;28.21;87.98;100109.23;109599;1250;60046;-71
2023/09/07 07:38:50;;;;;;;5.90;5.10;;;;;;;28.09;88.12;100110.30;109582;1250;59686;-70
2023/09/07 07:41:16;;;;;;;5.00;4.50;;;;;;;28.13;89.44;100108.40;109691;1250;75660;-70
2023/09/07 07:43:43;;;;;;;5.90;5.40;;;;;;;28.14;88.58;100114.30;109664;1250;67678;-71
2023/09/07 07:46:10;;;;;;;5.20;4.50;;;;;;;27.91;89.25;100115.02;109527;1250;72405;-69
2023/09/07 07:48:37;;;;;;;7.60;5.30;;;;;;;27.52;88.96;100118.79;109535;1250;59781;-69
2023/09/07 07:51:05;;;;;;;5.30;4.80;;;;;;;27.12;92.22;100117.17;109561;1251;60185;-68
2023/09/07 07:53:36;;;;;;;5.10;4.00;;;;;;;26.99;94.80;100120.52;109567;1251;74556;-71
2023/09/07 07:56:03;;;;;;;5.30;4.60;;;;;;;27.07;94.24;100121.33;109683;1250;66988;-70
2023/09/07 07:58:30;;;;;;;4.60;3.90;;;;;;;27.35;96.50;100122.51;109455;1250;71508;-69
2023/09/07 08:00:58;;;;;;;4.80;4.40;;;;;;;27.89;90.79;100118.09;109647;1254;60098;-69
2023/09/07 08:03:28;;;;;;;4.70;4.20;;;;;;;28.09;88.05;100124.09;109557;1255;60215;-70
2023/09/07 08:05:55;;;;;;;4.90;4.50;;;;;;;27.99;85.60;100125.25;109568;1255;74814;-70
2023/09/07 08:08:21;;;;;;;7.50;4.50;;;;;;;27.62;85.19;100129.94;109679;1250;67871;-70
2023/09/07 08:10:48;;;;;;;4.70;4.30;;;;;;;27.07;89.50;100129.36;109524;1250;70671;-70
2023/09/07 08:13:15;;;;;;;6.30;4.30;;;;;;;26.95;93.58;100127.64;109648;1251;60172;-70
2023/09/07 08:15:42;;;;;;;4.80;3.90;;;;;;;27.31;93.53;100127.35;109518;1251;60107;-70
2023/09/07 08:18:10;;;;;;;4.30;3.90;;;;;;;27.94;91.36;100127.46;109494;1250;75656;-71
2023/09/07 08:20:38;;;;;;;4.70;3.90;;;;;;;28.70;89.73;100125.63;109528;1256;66999;-70
2023/09/07 08:23:08;;;;;;;7.10;4.10;;;;;;;29.51;83.34;100128.19;109690;1250;71147;-70
2023/09/07 08:25:34;;;;;;;4.70;4.30;;;;;;;30.15;79.40;100120.27;109567;1250;59783;-70
2023/09/07 08:28:05;;;;;;;5.40;4.50;;;;;;;30.48;72.25;100124.97;109669;1250;60369;-71
2023/09/07 08:30:33;;;;;;;5.50;4.90;;;;;;;30.41;70.04;100125.23;109671;1250;75408;-71
2023/09/07 08:33:02;;;;;;;7.90;5.10;;;;;;;30.45;72.67;100125.27;109709;1250;66401;-70
2023/09/07 08:35:30;;;;;;;6.00;4.60;;;;;;;30.88;71.35;100121.53;109624;1251;72671;-70
2023/09/07 08:37:58;;;;;;;7.90;4.40;;;;;;;31.36;67.31;100123.55;109639;1250;59800;-70
2023/09/07 08:40:27;;;;;;;5.30;4.80;;;;;;;31.71;66.09;100121.70;109653;1251;59643;-70
2023/09/07 08:42:53;;;;;;;6.30;5.10;;;;;;;32.02;63.24;100126.11;109653;1250;75247;-70
2023/09/07 08:45:21;;;;;;;4.70;3.80;;;;;;;32.31;60.37;100123.23;109576;1250;59764;-70
2023/09/07 08:47:48;;;;;;;4.40;3.70;;;;;;;32.55;59.91;100122.38;109666;1251;72625;-71
2023/09/07 08:50:16;;;;;;;3.60;3.10;;;;;;;32.83;57.88;100118.73;109529;1251;59770;-71
2023/09/07 08:52:43;;;;;;;4.30;3.00;;;;;;;33.02;55.21;100118.74;109489;1251;59800;-71
2023/09/07 08:55:09;;;;;;;4.40;2.70;;;;;;;32.90;52.08;100116.52;109622;1250;75402;-70
2023/09/07 08:57:36;;;;;;;5.00;3.90;;;;;;;32.58;52.15;100118.53;109580;1256;66955;-70
2023/09/07 09:00:07;;;;;;;7.30;3.60;;;;;;;32.40;54.90;100123.54;109654;1250;71346;-71
2023/09/07 09:02:36;;;;;;;4.20;3.60;;;;;;;32.59;55.42;100121.83;109629;1250;60151;-70
2023/09/07 09:05:04;;;;;;;3.30;3.00;;;;;;;32.76;52.85;100122.11;109643;1250;59736;-70
2023/09/07 09:07:31;;;;;;;4.10;3.20;;;;;;;32.62;51.58;100124.20;109564;1250;74313;-70
2023/09/07 09:10:07;;;;;;;3.20;2.80;;;;;;;32.44;52.38;100124.79;109633;1251;67775;-70
2023/09/07 09:12:35;;;;;;;3.70;3.40;;;;;;;32.19;52.38;100126.30;109636;1251;72412;-71
2023/09/07 09:15:03;;;;;;;3.30;2.90;;;;;;;31.95;52.57;100126.13;109656;1251;59742;-70
2023/09/07 09:17:29;;;;;;;2.90;2.70;;;;;;;31.78;52.76;100128.43;109643;1251;60356;-70
2023/09/07 09:19:56;;;;;;;3.40;3.10;;;;;;;31.58;52.71;100123.49;109522;1250;75234;-71
2023/09/07 09:22:24;;;;;;;3.70;3.00;;;;;;;31.27;53.94;100126.67;109660;1250;68281;-70
2023/09/07 09:24:50;;;;;;;3.00;2.70;;;;;;;31.25;55.18;100125.60;109522;1250;71630;-70
2023/09/07 09:27:17;;;;;;;3.60;3.00;;;;;;;31.37;54.95;100125.35;109637;1251;60163;-70
2023/09/07 09:29:44;;;;;;;5.40;3.20;;;;;;;31.55;55.94;100121.11;109614;1254;59610;-71
2023/09/07 09:32:13;;;;;;;2.70;2.40;;;;;;;31.79;54.47;100123.85;109641;1255;74225;-71
2023/09/07 09:34:41;;;;;;;4.50;2.80;;;;;;;31.81;51.95;100125.96;109620;1254;68581;-70
2023/09/07 09:37:12;;;;;;;3.60;2.60;;;;;;;31.74;52.58;100130.02;109562;1250;71276;-70
2023/09/07 09:39:39;;;;;;;2.70;2.30;;;;;;;31.69;51.98;100127.54;109565;1252;59824;-70
2023/09/07 09:42:06;;;;;;;3.30;2.30;;;;;;;31.64;52.12;100123.05;109555;1251;60412;-71
2023/09/07 09:44:33;;;;;;;8.20;3.00;;;;;;;31.52;51.50;100127.74;109485;1250;75989;-70
2023/09/07 09:46:59;;;;;;;2.70;2.50;;;;;;;31.41;51.44;100128.84;109387;1250;67136;-70
2023/09/07 09:49:26;;;;;;;3.80;2.80;;;;;;;31.34;52.00;100132.86;109654;1251;72527;-70
2023/09/07 09:51:53;;;;;;;3.30;2.90;;;;;;;31.38;53.48;100126.66;109493;1255;59784;-70
2023/09/07 09:54:20;;;;;;;3.80;2.40;;;;;;;31.46;54.03;100127.97;109556;1251;60195;-70
2023/09/07 09:56:47;;;;;;;3.30;2.40;;;;;;;31.54;54.14;100125.63;109539;1251;75291;-70
2023/09/07 09:59:14;;;;;;;4.10;3.10;;;;;;;31.56;53.79;100125.12;109540;1250;67846;-70
2023/09/07 10:01:44;;;;;;;3.80;3.00;;;;;;;31.42;53.71;100129.50;109639;1251;72398;-70
2023/09/07 10:04:15;;;;;;;5.10;2.80;;;;;;;31.05;54.28;100128.63;109623;1251;60882;-69
2023/09/07 10:06:54;;;;;;;3.20;2.90;;;;;;;30.57;55.13;100129.79;109603;1251;59713;-70
2023/09/07 10:09:21;;;;;;;3.50;2.80;;;;;;;30.05;56.38;100126.79;109673;1250;75448;-70
2023/09/07 10:11:53;;;;;;;2.90;2.60;;;;;;;29.55;58.12;100133.77;109658;1250;67655;-70
2023/09/07 10:14:19;;;;;;;3.40;2.60;;;;;;;29.03;60.42;100132.70;109600;1250;72432;-70
2023/09/07 10:16:55;;;;;;;4.70;2.40;;;;;;;28.89;62.72;100133.91;109616;1251;59753;-70
2023/09/07 10:19:23;;;;;;;3.80;3.10;;;;;;;28.87;62.60;100135.66;109680;1251;59811;-70
2023/09/07 10:21:52;;;;;;;3.30;3.00;;;;;;;28.69;63.36;100132.59;109709;1250;74485;-69
2023/09/07 10:24:35;;;;;;;6.60;2.80;;;;;;;28.57;65.46;100133.98;109661;1250;67672;-70
2023/09/07 10:27:04;;;;;;;3.10;2.70;;;;;;;28.44;65.93;100130.73;109661;1251;71214;-68
2023/09/07 10:29:44;;;;;;;2.80;2.60;;;;;;;28.33;66.61;100131.26;109581;1250;59716;-70
2023/09/07 10:32:12;;;;;;;2.70;2.50;;;;;;;28.23;67.68;100134.85;109567;1250;60760;-70
2023/09/07 10:34:45;;;;;;;3.10;2.20;;;;;;;28.23;69.39;100129.43;109620;1251;75182;-70
2023/09/07 10:37:13;;;;;;;4.60;2.10;;;;;;;28.34;70.36;100130.55;109669;1251;67930;-70
2023/09/07 10:39:42;;;;;;;2.40;2.20;;;;;;;28.48;68.12;100134.19;109607;1250;72746;-75
2023/09/07 10:42:23;;;;;;;4.50;2.00;;;;;;;28.51;66.17;100135.50;109551;1251;59985;-72
2023/09/07 10:44:50;;;;;;;3.00;2.30;;;;;;;28.26;65.92;100133.70;109656;1250;60273;-69
2023/09/07 10:47:17;;;;;;;3.40;2.10;;;;;;;28.02;67.11;100135.11;109646;1251;75136;-68
2023/09/07 10:49:43;;;;;;;1.60;1.50;;;;;;;27.87;65.77;100136.33;109642;1250;66582;-69
2023/09/07 10:52:10;;;;;;;2.70;2.50;;;;;;;27.77;64.90;100134.06;109577;1251;72387;-69
2023/09/07 10:54:37;;;;;;;3.40;2.40;;;;;;;27.78;66.52;100136.68;109630;1254;60010;-67
2023/09/07 10:57:19;;;;;;;3.20;2.10;;;;;;;27.90;66.70;100134.27;109685;1251;60431;-68
2023/09/07 10:59:46;;;;;;;2.50;1.90;;;;;;;27.87;65.26;100128.91;109636;1250;73635;-65
2023/09/07 11:02:12;;;;;;;4.30;2.20;;;;;;;27.79;65.98;100129.69;109630;1251;67908;-65
2023/09/07 11:04:39;;;;;;;8.40;2.30;;;;;;;27.69;66.75;100128.50;109556;1251;72371;-67
2023/09/07 11:07:06;;;;;;;2.80;1.90;;;;;;;27.47;67.01;100128.11;109593;1251;60229;-65